Time;durP1;ratioP1;P1;durP2;ratioP2;P2;SDS_P1;SDS_P2;PMS_P1;PMS_P2;Temp;Humidity;BMP_temperature;BMP_pressure;BME280_temperature;BME280_humidity;BME280_pressure;Samples;Min_cycle;Max_cycle;Signal;HPM_P1;HPM_P2
2021/08/03 00:00:03;;;;;;;6.15;2.67;;;;;;;;;;5056295;28;20559;-69
2021/08/03 00:02:29;;;;;;;5.28;2.78;;;;;;;;;;5074515;28;20059;-69
2021/08/03 00:04:57;;;;;;;5.40;3.78;;;;;;;;;;5074170;28;20133;-69
2021/08/03 00:07:23;;;;;;;2.92;2.47;;;;;;;;;;5074102;28;20013;-69
2021/08/03 00:09:49;;;;;;;5.95;2.45;;;;;;;;;;5074457;28;20107;-70
2021/08/03 00:12:16;;;;;;;8.93;2.70;;;;;;;;;;5055925;28;20424;-69
2021/08/03 00:14:43;;;;;;;3.42;2.35;;;;;;;;;;5056451;28;20099;-69
2021/08/03 00:17:13;;;;;;;4.35;2.58;;;;;;;;;;5074166;28;20015;-69
2021/08/03 00:19:39;;;;;;;5.50;2.85;;;;;;;;;;5073309;28;20393;-69
2021/08/03 00:22:05;;;;;;;5.28;3.10;;;;;;;;;;5056222;28;20047;-69
2021/08/03 00:24:32;;;;;;;4.60;2.70;;;;;;;;;;5074184;28;20046;-70
2021/08/03 00:26:57;;;;;;;3.60;2.85;;;;;;;;;;5055398;28;20024;-69
2021/08/03 00:29:23;;;;;;;4.28;3.00;;;;;;;;;;5073769;28;20021;-69
2021/08/03 00:31:49;;;;;;;3.17;2.47;;;;;;;;;;5073863;28;20444;-69
2021/08/03 00:34:15;;;;;;;5.18;3.90;;;;;;;;;;5073383;28;20021;-69
2021/08/03 00:36:40;;;;;;;3.92;2.90;;;;;;;;;;5073780;28;20358;-70
2021/08/03 00:39:06;;;;;;;5.97;2.80;;;;;;;;;;5055744;28;20378;-68
2021/08/03 00:41:37;;;;;;;3.92;3.08;;;;;;;;;;5073025;28;20024;-70
2021/08/03 00:44:02;;;;;;;3.95;2.83;;;;;;;;;;5073664;28;20063;-69
2021/08/03 00:46:27;;;;;;;5.00;3.10;;;;;;;;;;5073770;28;20020;-69
2021/08/03 00:48:53;;;;;;;5.18;3.67;;;;;;;;;;5073537;28;20028;-69
2021/08/03 00:51:20;;;;;;;5.07;2.90;;;;;;;;;;5073340;28;20051;-69
2021/08/03 00:53:45;;;;;;;6.00;3.30;;;;;;;;;;5073324;28;20029;-69
2021/08/03 00:56:11;;;;;;;4.70;3.60;;;;;;;;;;5072893;28;20017;-69
2021/08/03 00:58:37;;;;;;;5.05;3.42;;;;;;;;;;5073315;28;20039;-68
2021/08/03 01:01:04;;;;;;;6.22;3.15;;;;;;;;;;5073173;28;20124;-69
2021/08/03 01:03:29;;;;;;;5.45;3.78;;;;;;;;;;5072634;28;20016;-69
2021/08/03 01:06:05;;;;;;;5.50;3.35;;;;;;;;;;5073368;28;20478;-69
2021/08/03 01:08:45;;;;;;;6.15;3.85;;;;;;;;;;5073230;28;20013;-69
2021/08/03 01:11:14;;;;;;;6.45;3.42;;;;;;;;;;5072724;28;20036;-69
2021/08/03 01:13:49;;;;;;;6.57;3.35;;;;;;;;;;5070016;28;20031;-69
2021/08/03 01:16:22;;;;;;;6.43;3.92;;;;;;;;;;5055308;28;20373;-69
2021/08/03 01:19:06;;;;;;;4.45;3.28;;;;;;;;;;5054750;28;20354;-69
2021/08/03 01:21:50;;;;;;;7.85;3.60;;;;;;;;;;5072865;28;20031;-69
2021/08/03 01:24:24;;;;;;;7.07;3.50;;;;;;;;;;5054827;28;20029;-69
2021/08/03 01:26:59;;;;;;;7.30;3.40;;;;;;;;;;5072176;28;20111;-69
2021/08/03 01:29:25;;;;;;;6.55;4.00;;;;;;;;;;5072768;28;20016;-69
2021/08/03 01:31:52;;;;;;;6.65;3.58;;;;;;;;;;5072782;28;20524;-69
2021/08/03 01:34:19;;;;;;;4.75;3.47;;;;;;;;;;5072124;28;20056;-69
2021/08/03 01:36:52;;;;;;;4.43;3.05;;;;;;;;;;5072830;28;20415;-69
2021/08/03 01:39:20;;;;;;;5.13;3.20;;;;;;;;;;5071705;28;20023;-70
2021/08/03 01:41:46;;;;;;;3.33;3.03;;;;;;;;;;5054230;28;20115;-69
2021/08/03 01:44:13;;;;;;;3.65;2.92;;;;;;;;;;5054617;28;20052;-69
2021/08/03 01:46:39;;;;;;;5.38;2.92;;;;;;;;;;5054721;28;20058;-69
2021/08/03 01:49:06;;;;;;;9.65;3.75;;;;;;;;;;5072048;28;20429;-69
2021/08/03 01:51:32;;;;;;;6.82;3.20;;;;;;;;;;5072297;28;20075;-69
2021/08/03 01:53:58;;;;;;;5.50;3.20;;;;;;;;;;5072607;28;20048;-69
2021/08/03 01:56:24;;;;;;;6.20;3.45;;;;;;;;;;5072182;28;20012;-69
2021/08/03 01:58:49;;;;;;;3.25;2.83;;;;;;;;;;5072395;28;20512;-69
2021/08/03 02:01:15;;;;;;;6.28;3.28;;;;;;;;;;5072408;28;20040;-69
2021/08/03 02:03:42;;;;;;;4.10;3.10;;;;;;;;;;5053752;28;20025;-69
2021/08/03 02:06:07;;;;;;;5.93;3.67;;;;;;;;;;5072433;28;20020;-69
2021/08/03 02:08:35;;;;;;;5.63;3.80;;;;;;;;;;5072335;28;20025;-69
2021/08/03 02:11:01;;;;;;;4.97;2.95;;;;;;;;;;5072136;28;20017;-69
2021/08/03 02:13:27;;;;;;;7.38;3.30;;;;;;;;;;5072177;28;20044;-69
2021/08/03 02:15:53;;;;;;;7.70;3.70;;;;;;;;;;5054381;28;20027;-69
2021/08/03 02:18:18;;;;;;;8.55;3.83;;;;;;;;;;5071484;28;20027;-69
2021/08/03 02:20:44;;;;;;;4.35;2.97;;;;;;;;;;5072155;28;20034;-69
2021/08/03 02:23:10;;;;;;;4.30;2.90;;;;;;;;;;5072279;28;20012;-69
2021/08/03 02:25:35;;;;;;;4.80;3.10;;;;;;;;;;5071701;28;20485;-70
2021/08/03 02:28:02;;;;;;;7.20;3.95;;;;;;;;;;5072196;28;20423;-69
2021/08/03 02:30:28;;;;;;;6.60;2.97;;;;;;;;;;5072176;28;20036;-69
2021/08/03 02:32:57;;;;;;;4.40;3.22;;;;;;;;;;5071757;28;20051;-69
2021/08/03 02:35:24;;;;;;;5.22;2.60;;;;;;;;;;5071953;28;20020;-69
2021/08/03 02:37:51;;;;;;;7.00;3.28;;;;;;;;;;5054054;28;20466;-69
2021/08/03 02:40:17;;;;;;;5.85;3.30;;;;;;;;;;5071445;28;20032;-70
2021/08/03 02:42:43;;;;;;;3.92;3.50;;;;;;;;;;5054169;28;20123;-69
2021/08/03 02:45:11;;;;;;;4.35;3.05;;;;;;;;;;5054228;28;20040;-68
2021/08/03 02:47:45;;;;;;;4.25;3.35;;;;;;;;;;5071292;28;20051;-69
2021/08/03 02:50:11;;;;;;;4.68;3.28;;;;;;;;;;5074486;28;20029;-69
2021/08/03 02:52:39;;;;;;;4.10;3.38;;;;;;;;;;5037749;28;20098;-69
2021/08/03 02:55:08;;;;;;;4.35;3.33;;;;;;;;;;5055442;28;20021;-69
2021/08/03 02:57:34;;;;;;;5.57;4.25;;;;;;;;;;5055611;28;20025;-69
2021/08/03 03:00:01;;;;;;;8.52;3.85;;;;;;;;;;5055320;28;20033;-68
2021/08/03 03:02:27;;;;;;;8.70;4.18;;;;;;;;;;5054228;28;20021;-69
2021/08/03 03:04:57;;;;;;;7.47;3.90;;;;;;;;;;5055885;28;20473;-69
2021/08/03 03:07:29;;;;;;;9.80;3.80;;;;;;;;;;5055431;28;20027;-69
2021/08/03 03:09:56;;;;;;;7.50;3.83;;;;;;;;;;5053987;28;20017;-69
2021/08/03 03:12:23;;;;;;;9.55;4.43;;;;;;;;;;5055481;28;20017;-68
2021/08/03 03:14:48;;;;;;;6.07;4.10;;;;;;;;;;5055323;28;20120;-68
2021/08/03 03:17:16;;;;;;;6.82;4.05;;;;;;;;;;5055019;28;20099;-69
2021/08/03 03:19:42;;;;;;;6.97;4.18;;;;;;;;;;5053696;28;20078;-70
2021/08/03 03:22:08;;;;;;;12.38;4.00;;;;;;;;;;5055154;28;20481;-69
2021/08/03 03:24:36;;;;;;;12.02;4.65;;;;;;;;;;5054772;28;20489;-69
2021/08/03 03:27:02;;;;;;;8.20;4.30;;;;;;;;;;5054131;28;20053;-69
2021/08/03 03:29:27;;;;;;;6.22;3.80;;;;;;;;;;5054834;28;20489;-69
2021/08/03 03:31:53;;;;;;;13.68;4.60;;;;;;;;;;5053684;28;20029;-69
2021/08/03 03:34:21;;;;;;;7.80;4.82;;;;;;;;;;5054915;28;20401;-69
2021/08/03 03:36:48;;;;;;;7.43;4.82;;;;;;;;;;5055040;28;20040;-69
2021/08/03 03:39:14;;;;;;;7.55;4.72;;;;;;;;;;5054211;28;20478;-69
2021/08/03 03:41:44;;;;;;;8.23;4.80;;;;;;;;;;5054678;28;20036;-69
2021/08/03 03:44:09;;;;;;;;;;;;;;;;;;5055087;28;20028;-69
2021/08/03 03:46:40;;;;;;;10.83;4.50;;;;;;;;;;5054398;28;19908;-69
2021/08/03 03:49:08;;;;;;;6.28;3.83;;;;;;;;;;5055182;28;20023;-68
2021/08/03 03:51:36;;;;;;;12.02;4.95;;;;;;;;;;5060769;28;20174;-69
2021/08/03 03:54:02;;;;;;;16.27;5.28;;;;;;;;;;5057116;28;20029;-69
2021/08/03 03:56:34;;;;;;;11.13;5.20;;;;;;;;;;5059224;28;20508;-69
2021/08/03 03:59:00;;;;;;;10.75;5.57;;;;;;;;;;5076368;28;20031;-68
2021/08/03 04:01:25;;;;;;;9.50;4.88;;;;;;;;;;5073958;28;20104;-69
2021/08/03 04:03:52;;;;;;;7.43;4.93;;;;;;;;;;5074643;28;20047;-69
2021/08/03 04:06:18;;;;;;;8.93;4.95;;;;;;;;;;5056807;28;20086;-69
2021/08/03 04:08:45;;;;;;;5.97;4.60;;;;;;;;;;5074284;28;20477;-69
2021/08/03 04:11:16;;;;;;;8.45;4.57;;;;;;;;;;5056666;28;20025;-69
2021/08/03 04:13:46;;;;;;;8.77;4.45;;;;;;;;;;5074609;28;20023;-69
2021/08/03 04:16:11;;;;;;;10.98;5.00;;;;;;;;;;5074025;28;20104;-69
2021/08/03 04:18:37;;;;;;;10.10;5.97;;;;;;;;;;5074252;28;20048;-69
2021/08/03 04:21:02;;;;;;;10.07;6.20;;;;;;;;;;5074452;28;20068;-69
2021/08/03 04:23:28;;;;;;;14.82;6.30;;;;;;;;;;5073488;28;20536;-69
2021/08/03 04:25:53;;;;;;;8.32;5.55;;;;;;;;;;5074234;28;20141;-68
2021/08/03 04:28:19;;;;;;;11.30;5.70;;;;;;;;;;5073991;28;20365;-69
2021/08/03 04:30:44;;;;;;;10.20;5.63;;;;;;;;;;5055588;28;20028;-69
2021/08/03 04:33:10;;;;;;;10.80;5.07;;;;;;;;;;5074078;28;20424;-69
2021/08/03 04:35:36;;;;;;;14.20;5.30;;;;;;;;;;5073745;28;20024;-69
2021/08/03 04:38:01;;;;;;;7.22;5.15;;;;;;;;;;5073140;28;20380;-69
2021/08/03 04:40:27;;;;;;;10.60;4.70;;;;;;;;;;5055674;28;20020;-69
2021/08/03 04:42:52;;;;;;;9.55;4.30;;;;;;;;;;5073584;28;20028;-69
2021/08/03 04:45:19;;;;;;;8.80;4.40;;;;;;;;;;5073181;28;20027;-69
2021/08/03 04:47:45;;;;;;;7.90;5.30;;;;;;;;;;5073486;28;20025;-69
2021/08/03 04:50:12;;;;;;;8.60;4.82;;;;;;;;;;5073246;28;20019;-69
2021/08/03 04:52:37;;;;;;;9.73;5.22;;;;;;;;;;5054983;28;20131;-68
2021/08/03 04:55:03;;;;;;;6.78;4.70;;;;;;;;;;5073382;28;20108;-68
2021/08/03 04:57:28;;;;;;;8.65;4.88;;;;;;;;;;5073111;28;20025;-68
2021/08/03 04:59:54;;;;;;;11.45;4.50;;;;;;;;;;5072806;28;20078;-68
2021/08/03 05:02:19;;;;;;;9.10;4.22;;;;;;;;;;5073287;28;20017;-69
2021/08/03 05:04:44;;;;;;;9.40;3.78;;;;;;;;;;5073305;28;20073;-69
2021/08/03 05:07:11;;;;;;;6.50;3.70;;;;;;;;;;5072683;28;20021;-69
2021/08/03 05:09:37;;;;;;;7.88;3.50;;;;;;;;;;5055035;28;20393;-69
2021/08/03 05:12:04;;;;;;;7.40;4.50;;;;;;;;;;5073060;28;20107;-69
2021/08/03 05:14:29;;;;;;;3.95;3.55;;;;;;;;;;5072700;28;20070;-69
2021/08/03 05:16:55;;;;;;;5.93;4.05;;;;;;;;;;5073132;28;20488;-69
2021/08/03 05:19:20;;;;;;;4.68;3.30;;;;;;;;;;5072835;28;20043;-69
2021/08/03 05:21:45;;;;;;;7.15;3.97;;;;;;;;;;5072620;28;20035;-69
2021/08/03 05:24:11;;;;;;;5.60;3.20;;;;;;;;;;5072769;28;20048;-68
2021/08/03 05:26:36;;;;;;;4.03;2.88;;;;;;;;;;5054895;28;20099;-69
2021/08/03 05:29:02;;;;;;;5.20;3.38;;;;;;;;;;5072862;28;20024;-69
2021/08/03 05:31:27;;;;;;;4.28;2.95;;;;;;;;;;5054807;28;20028;-69
2021/08/03 05:33:53;;;;;;;3.58;2.75;;;;;;;;;;5072840;28;20030;-69
2021/08/03 05:36:18;;;;;;;4.72;2.47;;;;;;;;;;5072939;28;20013;-69
2021/08/03 05:38:44;;;;;;;8.98;2.75;;;;;;;;;;5072115;28;20028;-69
2021/08/03 05:41:09;;;;;;;2.83;2.50;;;;;;;;;;5072403;28;20025;-68
2021/08/03 05:43:34;;;;;;;10.65;3.90;;;;;;;;;;5072696;28;20028;-69
2021/08/03 05:46:01;;;;;;;2.95;2.25;;;;;;;;;;5072165;28;20024;-69
2021/08/03 05:48:26;;;;;;;4.32;2.25;;;;;;;;;;5072568;28;20023;-69
2021/08/03 05:50:52;;;;;;;4.03;2.10;;;;;;;;;;5072693;28;20460;-68
2021/08/03 05:53:19;;;;;;;2.58;2.00;;;;;;;;;;5072115;28;20122;-69
2021/08/03 05:55:44;;;;;;;3.17;2.40;;;;;;;;;;5083494;28;20047;-70
2021/08/03 05:58:10;;;;;;;4.18;2.50;;;;;;;;;;5079818;28;20013;-66
2021/08/03 06:00:37;;;;;;;2.42;2.13;;;;;;;;;;5076649;28;20023;-66
2021/08/03 06:03:02;;;;;;;2.75;1.90;;;;;;;;;;5075319;28;20027;-67
2021/08/03 06:05:28;;;;;;;4.55;1.90;;;;;;;;;;5078111;28;20023;-68
2021/08/03 06:07:56;;;;;;;2.72;1.70;;;;;;;;;;5071518;28;20400;-68
2021/08/03 06:10:22;;;;;;;2.30;1.70;;;;;;;;;;5071864;28;20024;-70
2021/08/03 06:12:49;;;;;;;4.18;1.98;;;;;;;;;;5083065;28;20028;-69
2021/08/03 06:15:14;;;;;;;2.47;1.63;;;;;;;;;;5071652;28;20099;-68
2021/08/03 06:17:42;;;;;;;3.15;2.10;;;;;;;;;;5075759;28;20474;-68
2021/08/03 06:20:08;;;;;;;4.63;1.98;;;;;;;;;;5076811;28;20032;-68
2021/08/03 06:22:38;;;;;;;5.82;2.20;;;;;;;;;;5067325;28;20032;-68
2021/08/03 06:25:04;;;;;;;4.07;2.78;;;;;;;;;;5080344;28;20518;-70
2021/08/03 06:27:30;;;;;;;2.70;2.40;;;;;;;;;;5095685;28;20110;-68
2021/08/03 06:29:55;;;;;;;4.63;2.25;;;;;;;;;;5095106;28;20059;-71
2021/08/03 06:32:22;;;;;;;5.60;2.53;;;;;;;;;;5095317;28;20052;-68
2021/08/03 06:34:47;;;;;;;2.50;2.30;;;;;;;;;;5090036;28;20479;-68
2021/08/03 06:37:13;;;;;;;3.88;1.85;;;;;;;;;;5079370;28;20047;-68
2021/08/03 06:39:39;;;;;;;4.05;1.80;;;;;;;;;;5078170;28;20187;-69
2021/08/03 06:42:08;;;;;;;2.42;1.70;;;;;;;;;;5079345;28;20093;-69
2021/08/03 06:44:35;;;;;;;1.88;1.63;;;;;;;;;;5085951;28;20080;-68
2021/08/03 06:47:01;;;;;;;1.67;1.48;;;;;;;;;;5062769;28;20032;-70
2021/08/03 06:49:30;;;;;;;4.68;2.45;;;;;;;;;;5087109;28;20146;-72
2021/08/03 06:51:56;;;;;;;4.28;2.40;;;;;;;;;;5048124;28;20075;-70
2021/08/03 06:54:22;;;;;;;3.65;2.75;;;;;;;;;;5059125;28;20473;-71
2021/08/03 06:56:49;;;;;;;9.05;2.40;;;;;;;;;;5057558;28;20009;-68
2021/08/03 06:59:22;;;;;;;10.27;2.58;;;;;;;;;;5062950;28;20029;-67
2021/08/03 07:01:52;;;;;;;4.15;1.90;;;;;;;;;;5060429;28;20119;-67
2021/08/03 07:04:37;;;;;;;3.80;2.10;;;;;;;;;;5067702;28;20385;-67
2021/08/03 07:07:03;;;;;;;7.43;2.22;;;;;;;;;;5055412;28;20054;-67
2021/08/03 07:09:28;;;;;;;4.70;1.90;;;;;;;;;;5064721;28;20500;-66
2021/08/03 07:11:54;;;;;;;3.17;2.03;;;;;;;;;;5073580;28;20099;-67
2021/08/03 07:14:24;;;;;;;5.28;1.77;;;;;;;;;;5062849;28;20046;-67
2021/08/03 07:16:50;;;;;;;4.00;1.83;;;;;;;;;;5059099;28;20079;-67
2021/08/03 07:19:17;;;;;;;4.50;1.42;;;;;;;;;;5064222;28;20040;-68
2021/08/03 07:21:43;;;;;;;3.42;1.60;;;;;;;;;;5054331;28;20025;-68
2021/08/03 07:24:12;;;;;;;3.97;1.60;;;;;;;;;;5060926;28;20028;-68
2021/08/03 07:26:37;;;;;;;5.00;1.80;;;;;;;;;;5066423;28;20013;-70
2021/08/03 07:29:03;;;;;;;3.45;1.60;;;;;;;;;;5060141;28;20496;-70
2021/08/03 07:31:28;;;;;;;2.90;1.40;;;;;;;;;;5073904;28;20107;-70
2021/08/03 07:33:54;;;;;;;5.50;2.03;;;;;;;;;;5074393;28;20425;-69
2021/08/03 07:36:19;;;;;;;4.25;1.77;;;;;;;;;;5073499;28;20016;-71
2021/08/03 07:38:45;;;;;;;3.72;1.50;;;;;;;;;;5070170;28;20039;-70
2021/08/03 07:41:10;;;;;;;1.70;1.40;;;;;;;;;;5067584;28;20072;-68
2021/08/03 07:43:36;;;;;;;6.95;1.65;;;;;;;;;;5062370;28;20100;-69
2021/08/03 07:46:02;;;;;;;7.68;1.88;;;;;;;;;;5068224;28;20027;-70
2021/08/03 07:48:27;;;;;;;5.28;1.60;;;;;;;;;;5054368;28;20048;-68
2021/08/03 07:50:53;;;;;;;5.85;2.08;;;;;;;;;;5072689;28;20481;-69
2021/08/03 07:53:19;;;;;;;2.53;1.33;;;;;;;;;;5093451;28;20548;-69
2021/08/03 07:55:44;;;;;;;2.45;1.77;;;;;;;;;;5084039;28;20016;-68
2021/08/03 07:58:10;;;;;;;4.60;1.90;;;;;;;;;;5085533;28;20425;-67
2021/08/03 08:00:36;;;;;;;10.40;1.95;;;;;;;;;;5088787;28;20173;-69
2021/08/03 08:03:01;;;;;;;4.30;1.63;;;;;;;;;;5092292;28;20019;-68
2021/08/03 08:05:27;;;;;;;5.97;1.30;;;;;;;;;;5088396;28;20032;-69
2021/08/03 08:07:58;;;;;;;3.33;1.73;;;;;;;;;;5091545;28;20107;-68
2021/08/03 08:10:24;;;;;;;3.40;1.48;;;;;;;;;;5077307;28;20059;-69
2021/08/03 08:12:50;;;;;;;4.53;1.60;;;;;;;;;;5075560;28;20023;-70
2021/08/03 08:15:15;;;;;;;5.20;1.70;;;;;;;;;;5078112;28;20020;-69
2021/08/03 08:17:41;;;;;;;2.85;1.52;;;;;;;;;;5059898;28;20381;-69
2021/08/03 08:20:12;;;;;;;3.78;1.90;;;;;;;;;;5073808;28;20040;-70
2021/08/03 08:22:39;;;;;;;3.70;1.80;;;;;;;;;;5084028;28;20028;-69
2021/08/03 08:25:04;;;;;;;7.68;1.90;;;;;;;;;;5067753;28;20020;-69
2021/08/03 08:27:30;;;;;;;1.92;1.30;;;;;;;;;;5084417;28;20050;-69
2021/08/03 08:29:55;;;;;;;2.08;1.52;;;;;;;;;;5072789;28;20532;-69
2021/08/03 08:32:21;;;;;;;5.13;1.75;;;;;;;;;;5086978;28;20022;-68
2021/08/03 08:34:47;;;;;;;3.72;1.70;;;;;;;;;;5063892;28;20031;-70
2021/08/03 08:37:12;;;;;;;3.05;1.40;;;;;;;;;;5081188;28;20051;-69
2021/08/03 08:39:38;;;;;;;3.83;1.70;;;;;;;;;;5060096;28;20065;-70
2021/08/03 08:42:03;;;;;;;4.05;1.75;;;;;;;;;;5087469;28;20020;-70
2021/08/03 08:44:28;;;;;;;6.13;1.60;;;;;;;;;;5091447;28;20815;-69
2021/08/03 08:46:56;;;;;;;3.10;1.67;;;;;;;;;;5085838;28;20027;-68
2021/08/03 08:49:23;;;;;;;5.43;2.05;;;;;;;;;;5056296;28;20034;-68
2021/08/03 08:51:48;;;;;;;4.60;1.70;;;;;;;;;;5055867;28;20055;-70
2021/08/03 08:54:14;;;;;;;3.33;1.50;;;;;;;;;;5078824;28;20479;-69
2021/08/03 08:56:41;;;;;;;4.35;1.77;;;;;;;;;;5076428;28;20039;-70
2021/08/03 08:59:07;;;;;;;7.63;1.80;;;;;;;;;;5055780;28;20017;-69
2021/08/03 09:01:32;;;;;;;7.55;2.47;;;;;;;;;;5066496;28;20073;-68
2021/08/03 09:03:58;;;;;;;2.78;1.80;;;;;;;;;;5077481;28;20048;-69
2021/08/03 09:06:23;;;;;;;2.88;1.73;;;;;;;;;;5074401;28;20021;-69
2021/08/03 09:08:49;;;;;;;2.47;1.67;;;;;;;;;;5087453;28;20046;-69
2021/08/03 09:11:16;;;;;;;4.68;1.30;;;;;;;;;;5082949;28;20013;-69
2021/08/03 09:14:00;;;;;;;1.67;1.30;;;;;;;;;;5077157;28;20078;-70
2021/08/03 09:16:26;;;;;;;1.30;1.10;;;;;;;;;;5073178;28;20128;-70
2021/08/03 09:18:54;;;;;;;1.90;1.38;;;;;;;;;;5065770;28;20111;-69
2021/08/03 09:21:21;;;;;;;3.00;1.27;;;;;;;;;;5079546;28;20107;-70
2021/08/03 09:23:50;;;;;;;1.30;1.00;;;;;;;;;;5084288;28;20012;-70
2021/08/03 09:26:16;;;;;;;2.75;1.70;;;;;;;;;;5056681;28;20028;-69
2021/08/03 09:28:54;;;;;;;2.42;1.20;;;;;;;;;;5053206;28;20116;-67
2021/08/03 09:31:20;;;;;;;7.20;1.50;;;;;;;;;;5090599;28;20069;-69
2021/08/03 09:33:48;;;;;;;2.40;1.50;;;;;;;;;;5077462;28;20028;-67
2021/08/03 09:36:14;;;;;;;2.28;1.40;;;;;;;;;;5082080;28;20025;-66
2021/08/03 09:38:39;;;;;;;2.20;1.33;;;;;;;;;;5073741;28;20018;-67
2021/08/03 09:41:06;;;;;;;1.65;1.20;;;;;;;;;;5072771;28;20424;-68
2021/08/03 09:43:31;;;;;;;1.85;1.10;;;;;;;;;;5082470;28;20445;-67
2021/08/03 09:45:59;;;;;;;1.73;1.30;;;;;;;;;;5087325;28;20103;-67
2021/08/03 09:48:25;;;;;;;3.38;1.80;;;;;;;;;;5081382;28;20103;-69
2021/08/03 09:50:57;;;;;;;1.58;1.23;;;;;;;;;;5079402;28;20016;-68
2021/08/03 09:53:41;;;;;;;1.30;0.88;;;;;;;;;;5053190;28;20047;-67
2021/08/03 09:56:07;;;;;;;6.68;1.50;;;;;;;;;;5058556;28;20499;-68
2021/08/03 09:58:33;;;;;;;2.80;1.10;;;;;;;;;;5057292;28;20044;-67
2021/08/03 10:01:17;;;;;;;2.22;1.30;;;;;;;;;;5055901;28;20029;-67
2021/08/03 10:03:43;;;;;;;4.45;1.58;;;;;;;;;;5053638;28;20127;-67
2021/08/03 10:06:09;;;;;;;3.58;1.45;;;;;;;;;;5058282;28;20024;-67
2021/08/03 10:08:35;;;;;;;2.28;1.23;;;;;;;;;;5067355;28;20043;-66
2021/08/03 10:11:01;;;;;;;2.65;1.30;;;;;;;;;;5059458;28;20036;-67
2021/08/03 10:13:28;;;;;;;2.72;1.20;;;;;;;;;;5057109;28;20016;-67
2021/08/03 10:15:54;;;;;;;3.08;1.30;;;;;;;;;;5057633;28;20016;-67
2021/08/03 10:18:19;;;;;;;2.55;1.50;;;;;;;;;;5059406;28;20016;-67
2021/08/03 10:20:45;;;;;;;3.72;1.30;;;;;;;;;;5063225;28;20111;-68
2021/08/03 10:23:11;;;;;;;3.67;1.33;;;;;;;;;;5053092;28;20021;-67
2021/08/03 10:25:41;;;;;;;1.92;1.00;;;;;;;;;;5060363;28;20401;-67
2021/08/03 10:28:25;;;;;;;3.53;1.27;;;;;;;;;;5053562;28;20075;-69
2021/08/03 10:30:51;;;;;;;3.88;1.30;;;;;;;;;;5054607;28;20033;-70
2021/08/03 10:33:35;;;;;;;3.20;1.13;;;;;;;;;;5066220;28;20027;-70
2021/08/03 10:36:01;;;;;;;4.10;1.02;;;;;;;;;;5051308;28;20068;-69
2021/08/03 10:38:29;;;;;;;2.00;1.38;;;;;;;;;;5051642;28;20546;-72
2021/08/03 10:41:00;;;;;;;3.13;1.45;;;;;;;;;;5051379;28;20079;-73
2021/08/03 10:43:41;;;;;;;7.82;1.33;;;;;;;;;;5051683;28;20043;-70
2021/08/03 10:46:13;;;;;;;3.00;1.20;;;;;;;;;;5068897;28;20020;-71
2021/08/03 10:48:42;;;;;;;3.03;0.98;;;;;;;;;;5070477;28;20473;-69
2021/08/03 10:51:27;;;;;;;1.17;0.88;;;;;;;;;;5073367;28;20062;-70
2021/08/03 10:54:00;;;;;;;1.92;1.23;;;;;;;;;;5091372;28;20050;-71
2021/08/03 10:56:26;;;;;;;6.72;1.25;;;;;;;;;;5090661;28;20009;-73
2021/08/03 10:59:11;;;;;;;2.95;1.10;;;;;;;;;;5090679;28;20114;-73
2021/08/03 11:01:43;;;;;;;1.48;0.98;;;;;;;;;;5060226;28;20033;-70
2021/08/03 11:04:08;;;;;;;3.28;1.38;;;;;;;;;;5066886;28;20496;-68
2021/08/03 11:06:37;;;;;;;2.33;1.15;;;;;;;;;;5070877;28;20025;-67
2021/08/03 11:09:26;;;;;;;4.28;1.38;;;;;;;;;;5082384;28;20028;-68
2021/08/03 11:12:07;;;;;;;2.75;1.10;;;;;;;;;;5079147;28;20033;-69
2021/08/03 11:14:33;;;;;;;1.85;0.93;;;;;;;;;;5095261;28;20446;-69
2021/08/03 11:16:58;;;;;;;3.63;1.20;;;;;;;;;;5094203;28;20046;-70
2021/08/03 11:19:27;;;;;;;3.40;1.30;;;;;;;;;;5094331;28;20107;-70
2021/08/03 11:21:53;;;;;;;2.65;1.27;;;;;;;;;;5075881;28;20040;-67
2021/08/03 11:24:31;;;;;;;3.38;1.33;;;;;;;;;;5094588;28;20012;-67
2021/08/03 11:26:57;;;;;;;2.07;1.27;;;;;;;;;;5072214;28;20115;-67
2021/08/03 11:29:24;;;;;;;1.17;1.08;;;;;;;;;;5088425;28;20805;-68
2021/08/03 11:31:52;;;;;;;2.35;1.15;;;;;;;;;;5074468;28;20346;-68
2021/08/03 11:34:19;;;;;;;1.42;0.93;;;;;;;;;;5074061;28;20020;-67
2021/08/03 11:37:03;;;;;;;2.20;1.50;;;;;;;;;;5074137;28;20078;-68
2021/08/03 11:39:30;;;;;;;1.30;1.02;;;;;;;;;;5055109;28;20025;-70
2021/08/03 11:41:55;;;;;;;2.13;1.20;;;;;;;;;;5074007;28;20082;-70
2021/08/03 11:44:21;;;;;;;1.33;1.02;;;;;;;;;;5074511;28;20024;-70
2021/08/03 11:46:54;;;;;;;2.95;1.10;;;;;;;;;;5073818;28;20033;-68
2021/08/03 11:49:25;;;;;;;1.60;1.05;;;;;;;;;;5073764;28;20496;-67
2021/08/03 11:51:51;;;;;;;10.70;1.65;;;;;;;;;;5074001;28;20520;-68
2021/08/03 11:54:17;;;;;;;1.55;1.08;;;;;;;;;;5073177;28;20036;-68
2021/08/03 11:56:43;;;;;;;6.00;1.52;;;;;;;;;;5073885;28;20016;-70
2021/08/03 11:59:09;;;;;;;4.65;1.30;;;;;;;;;;5073335;28;20020;-69
2021/08/03 12:01:53;;;;;;;3.50;1.17;;;;;;;;;;5073143;28;20032;-67
2021/08/03 12:04:22;;;;;;;4.93;1.13;;;;;;;;;;5072413;28;20027;-67
2021/08/03 12:06:48;;;;;;;5.63;1.42;;;;;;;;;;5081488;28;20262;-68
2021/08/03 12:09:16;;;;;;;2.55;1.35;;;;;;;;;;5080196;28;20692;-67
2021/08/03 12:11:42;;;;;;;9.48;1.20;;;;;;;;;;5081629;28;20095;-66
2021/08/03 12:14:15;;;;;;;16.42;2.75;;;;;;;;;;5081039;28;20080;-68
2021/08/03 12:16:43;;;;;;;1.52;1.33;;;;;;;;;;5086910;28;20016;-68
2021/08/03 12:19:27;;;;;;;5.28;1.30;;;;;;;;;;5093460;28;20480;-69
2021/08/03 12:21:53;;;;;;;12.10;1.90;;;;;;;;;;5075194;28;20032;-68
2021/08/03 12:24:18;;;;;;;1.75;1.15;;;;;;;;;;5059190;28;20024;-68
2021/08/03 12:26:45;;;;;;;1.73;1.00;;;;;;;;;;5081633;28;20027;-67
2021/08/03 12:29:10;;;;;;;3.78;1.23;;;;;;;;;;5074415;28;20491;-67
2021/08/03 12:31:41;;;;;;;7.53;1.20;;;;;;;;;;5092325;28;20012;-68
2021/08/03 12:34:15;;;;;;;3.63;1.17;;;;;;;;;;5087390;28;20032;-68
2021/08/03 12:36:42;;;;;;;1.25;1.15;;;;;;;;;;5091503;28;20080;-67
2021/08/03 12:39:09;;;;;;;1.20;1.10;;;;;;;;;;5073986;28;20009;-67
2021/08/03 12:41:37;;;;;;;6.23;1.10;;;;;;;;;;5071987;28;20372;-67
2021/08/03 12:44:03;;;;;;;1.60;1.10;;;;;;;;;;5078276;28;20484;-67
2021/08/03 12:46:34;;;;;;;3.15;1.20;;;;;;;;;;5087378;28;20040;-67
2021/08/03 12:48:59;;;;;;;1.45;1.15;;;;;;;;;;5068593;28;20023;-66
2021/08/03 12:51:26;;;;;;;3.28;1.33;;;;;;;;;;5080253;28;20040;-66
2021/08/03 12:53:52;;;;;;;5.05;1.45;;;;;;;;;;5085376;28;20073;-68
2021/08/03 12:56:34;;;;;;;4.40;1.25;;;;;;;;;;5077371;28;20070;-67
2021/08/03 12:59:00;;;;;;;4.30;1.20;;;;;;;;;;5077925;28;20031;-66
2021/08/03 13:01:26;;;;;;;4.07;1.33;;;;;;;;;;5075867;28;20036;-67
2021/08/03 13:03:53;;;;;;;2.85;1.30;;;;;;;;;;5081810;28;20386;-67
2021/08/03 13:06:18;;;;;;;5.75;1.30;;;;;;;;;;5088343;28;20169;-64
2021/08/03 13:08:46;;;;;;;3.05;1.05;;;;;;;;;;5092585;28;20099;-65
2021/08/03 13:11:11;;;;;;;2.70;1.67;;;;;;;;;;5090805;28;20024;-65
2021/08/03 13:13:37;;;;;;;2.10;1.30;;;;;;;;;;5090716;28;20513;-66
2021/08/03 13:16:02;;;;;;;6.55;1.60;;;;;;;;;;5092557;28;20024;-65
2021/08/03 13:18:28;;;;;;;7.10;1.60;;;;;;;;;;5090450;28;20533;-69
2021/08/03 13:20:53;;;;;;;4.97;1.42;;;;;;;;;;5087959;28;20032;-68
2021/08/03 13:23:19;;;;;;;6.88;1.40;;;;;;;;;;5104042;28;20384;-67
2021/08/03 13:25:45;;;;;;;3.15;1.55;;;;;;;;;;5073705;28;20021;-67
2021/08/03 13:28:10;;;;;;;2.70;1.10;;;;;;;;;;5075451;28;20052;-67
2021/08/03 13:30:36;;;;;;;1.80;1.38;;;;;;;;;;5072141;28;20031;-68
2021/08/03 13:33:02;;;;;;;2.90;1.70;;;;;;;;;;5078438;28;20092;-70
2021/08/03 13:35:34;;;;;;;6.30;1.45;;;;;;;;;;5075795;28;20081;-70
2021/08/03 13:38:04;;;;;;;1.75;1.27;;;;;;;;;;5064417;28;20034;-69
2021/08/03 13:40:29;;;;;;;1.20;1.00;;;;;;;;;;5080636;28;20070;-71
2021/08/03 13:42:55;;;;;;;1.42;1.17;;;;;;;;;;5080322;28;20428;-70
2021/08/03 13:45:20;;;;;;;5.97;1.55;;;;;;;;;;5070198;28;20051;-67
2021/08/03 13:47:46;;;;;;;7.97;1.52;;;;;;;;;;5083825;28;20060;-73
2021/08/03 13:50:11;;;;;;;4.43;1.35;;;;;;;;;;5075013;28;20433;-72
2021/08/03 13:52:37;;;;;;;3.17;1.50;;;;;;;;;;5085359;28;20119;-70
2021/08/03 13:55:02;;;;;;;1.30;1.20;;;;;;;;;;5073438;28;20386;-69
2021/08/03 13:57:27;;;;;;;3.13;1.35;;;;;;;;;;5085653;28;20123;-70
2021/08/03 13:59:53;;;;;;;4.28;1.20;;;;;;;;;;5066393;28;20024;-68
2021/08/03 14:02:18;;;;;;;2.40;1.45;;;;;;;;;;5080924;28;20104;-67
2021/08/03 14:04:44;;;;;;;2.45;1.27;;;;;;;;;;5075198;28;20063;-68
2021/08/03 14:07:09;;;;;;;2.90;1.30;;;;;;;;;;5080266;28;20503;-68
2021/08/03 14:09:34;;;;;;;3.63;1.52;;;;;;;;;;5060136;28;20376;-67
2021/08/03 14:12:01;;;;;;;2.90;1.50;;;;;;;;;;5085080;28;20477;-67
2021/08/03 14:14:27;;;;;;;5.55;1.40;;;;;;;;;;5080183;28;20023;-67
2021/08/03 14:16:53;;;;;;;3.70;1.20;;;;;;;;;;5092344;28;20024;-68
2021/08/03 14:19:18;;;;;;;2.10;1.40;;;;;;;;;;5091431;28;20099;-67
2021/08/03 14:21:47;;;;;;;1.50;1.20;;;;;;;;;;5083566;28;20028;-67
2021/08/03 14:24:15;;;;;;;2.28;1.25;;;;;;;;;;5073188;28;20115;-68
2021/08/03 14:26:42;;;;;;;3.77;1.30;;;;;;;;;;5055806;28;20449;-73
2021/08/03 14:29:07;;;;;;;1.40;1.13;;;;;;;;;;5076399;28;20268;-68
2021/08/03 14:31:33;;;;;;;2.08;1.25;;;;;;;;;;5077846;28;20096;-69
2021/08/03 14:33:58;;;;;;;4.20;1.50;;;;;;;;;;5087579;28;20028;-69
2021/08/03 14:36:25;;;;;;;7.03;1.42;;;;;;;;;;5092431;28;20020;-69
2021/08/03 14:38:52;;;;;;;5.57;1.50;;;;;;;;;;5074186;28;20020;-69
2021/08/03 14:41:23;;;;;;;8.15;1.50;;;;;;;;;;5092359;28;20028;-69
2021/08/03 14:43:50;;;;;;;11.00;1.70;;;;;;;;;;5092443;28;20034;-69